Time;durP1;ratioP1;P1;durP2;ratioP2;P2;SDS_P1;SDS_P2;PMS_P1;PMS_P2;Temp;Humidity;BMP_temperature;BMP_pressure;BME280_temperature;BME280_humidity;BME280_pressure;Samples;Min_cycle;Max_cycle;Signal;HPM_P1;HPM_P2
2022/04/25 00:01:44;;;;;;;;;;;;;;;;;;5033328;28;20027;-59
2022/04/25 00:04:09;;;;;;;;;;;;;;;;;;5037262;28;19920;-59
2022/04/25 00:06:35;;;;;;;;;;;;;;;;;;5037138;28;20088;-58
2022/04/25 00:09:00;;;;;;;;;;;;;;;;;;5041926;28;19920;-58
2022/04/25 00:11:25;;;;;;;;;;;;;;;;;;5053508;28;20297;-56
2022/04/25 00:13:50;;;;;;;;;;;;;;;;;;5040297;28;19936;-59
2022/04/25 00:16:18;;;;;;;;;;;;;;;;;;5055615;28;20284;-58
2022/04/25 00:18:43;;;;;;;;;;;;;;;;;;5039152;28;20310;-58
2022/04/25 00:21:08;;;;;;;;;;;;;;;;;;5038578;28;19924;-58
2022/04/25 00:23:34;;;;;;;;;;;;;;;;;;5035085;28;20002;-58
2022/04/25 00:25:59;;;;;;;;;;;;;;;;;;5036815;28;19921;-58
2022/04/25 00:28:24;;;;;;;;;;;;;;;;;;5033491;28;19923;-59
2022/04/25 00:30:49;;;;;;;;;;;;;;;;;;5036198;28;19921;-58
2022/04/25 00:33:15;;;;;;;;;;;;;;;;;;5043036;28;19917;-58
2022/04/25 00:35:40;;;;;;;;;;;;;;;;;;5037438;28;20458;-58
2022/04/25 00:38:05;;;;;;;;;;;;;;;;;;5034513;28;19963;-58
2022/04/25 00:40:30;;;;;;;;;;;;;;;;;;5036345;28;19956;-58
2022/04/25 00:42:55;;;;;;;;;;;;;;;;;;5070837;28;20021;-58
2022/04/25 00:45:21;;;;;;;;;;;;;;;;;;5033607;28;20307;-58
2022/04/25 00:47:46;;;;;;;;;;;;;;;;;;5040264;28;19924;-58
2022/04/25 00:50:11;;;;;;;;;;;;;;;;;;5050859;28;19956;-58
2022/04/25 00:52:37;;;;;;;;;;;;;;;;;;5044447;28;19919;-58
2022/04/25 00:55:02;;;;;;;;;;;;;;;;;;5042130;28;20498;-58
2022/04/25 00:57:27;;;;;;;;;;;;;;;;;;5064795;28;20628;-57
2022/04/25 00:59:52;;;;;;;;;;;;;;;;;;5068605;28;20288;-57
2022/04/25 01:02:17;;;;;;;;;;;;;;;;;;5037057;28;20312;-58
2022/04/25 01:04:43;;;;;;;;;;;;;;;;;;5035865;28;20384;-57
2022/04/25 01:07:09;;;;;;;;;;;;;;;;;;5037304;28;20361;-57
2022/04/25 01:09:34;;;;;;;;;;;;;;;;;;5036255;28;19921;-57
2022/04/25 01:11:59;;;;;;;;;;;;;;;;;;5037488;28;20045;-58
2022/04/25 01:14:25;;;;;;;;;;;;;;;;;;5038328;28;20059;-58
2022/04/25 01:16:51;;;;;;;;;;;;;;;;;;5043496;28;19921;-57
2022/04/25 01:19:16;;;;;;;;;;;;;;;;;;5034749;28;20397;-57
2022/04/25 01:21:41;;;;;;;;;;;;;;;;;;5034193;28;19964;-57
2022/04/25 01:29:34;;;;;;;;;;;;;;;;;;5071040;28;20354;-58
2022/04/25 01:31:59;;;;;;;;;;;;;;;;;;5036774;28;20349;-58
2022/04/25 01:34:24;;;;;;;;;;;;;;;;;;5033336;28;20365;-58
2022/04/25 01:36:49;;;;;;;;;;;;;;;;;;5037357;28;19921;-57
2022/04/25 01:39:15;;;;;;;;;;;;;;;;;;5036676;28;20338;-57
2022/04/25 01:41:42;;;;;;;;;;;;;;;;;;5033663;28;19963;-58
2022/04/25 01:44:07;;;;;;;;;;;;;;;;;;5034842;28;19925;-58
2022/04/25 01:46:32;;;;;;;;;;;;;;;;;;5036980;28;19927;-58
2022/04/25 01:48:57;;;;;;;;;;;;;;;;;;5035524;28;19917;-58
2022/04/25 01:51:23;;;;;;;;;;;;;;;;;;5034785;28;19979;-58
2022/04/25 01:53:48;;;;;;;;;;;;;;;;;;5043587;28;19957;-58
2022/04/25 01:56:13;;;;;;;;;;;;;;;;;;5040861;28;20424;-58
2022/04/25 01:58:38;;;;;;;;;;;;;;;;;;5036236;28;20067;-58
2022/04/25 02:01:04;;;;;;;;;;;;;;;;;;5034111;28;19917;-58
2022/04/25 02:03:31;;;;;;;;;;;;;;;;;;5037351;28;19921;-58
2022/04/25 02:05:56;;;;;;;;;;;;;;;;;;5033767;28;20000;-58
2022/04/25 02:08:22;;;;;;;;;;;;;;;;;;5035925;28;20387;-58
2022/04/25 02:11:19;;;;;;;;;;;;;;;;;;5033230;28;19943;-58
2022/04/25 02:13:32;;;;;;;;;;;;;;;;;;5036058;28;19917;-58
2022/04/25 02:15:58;;;;;;;;;;;;;;;;;;5034754;28;19917;-58
2022/04/25 02:18:23;;;;;;;;;;;;;;;;;;5033785;28;19917;-58
2022/04/25 02:20:48;;;;;;;;;;;;;;;;;;5036376;28;19913;-58
2022/04/25 02:23:14;;;;;;;;;;;;;;;;;;5036302;28;19914;-58
2022/04/25 02:25:39;;;;;;;;;;;;;;;;;;5033309;28;19929;-58
2022/04/25 02:28:04;;;;;;;;;;;;;;;;;;5035213;28;19921;-58
2022/04/25 02:30:29;;;;;;;;;;;;;;;;;;5035067;28;19931;-58
2022/04/25 02:32:54;;;;;;;;;;;;;;;;;;5036357;28;20321;-58
2022/04/25 02:35:20;;;;;;;;;;;;;;;;;;5032987;28;19991;-58
2022/04/25 02:37:45;;;;;;;;;;;;;;;;;;5033366;28;20342;-58
2022/04/25 02:40:10;;;;;;;;;;;;;;;;;;5043113;28;19919;-58
2022/04/25 02:42:35;;;;;;;;;;;;;;;;;;5067684;28;19928;-58
2022/04/25 02:45:00;;;;;;;;;;;;;;;;;;5038056;28;19936;-58
2022/04/25 02:47:26;;;;;;;;;;;;;;;;;;5056736;28;20258;-58
2022/04/25 02:49:51;;;;;;;;;;;;;;;;;;5034434;28;19917;-58
2022/04/25 02:52:16;;;;;;;;;;;;;;;;;;5039522;28;20257;-58
2022/04/25 02:54:41;;;;;;;;;;;;;;;;;;5070846;28;19923;-58
2022/04/25 02:57:06;;;;;;;;;;;;;;;;;;5056758;28;20357;-58
2022/04/25 02:59:32;;;;;;;;;;;;;;;;;;5039825;28;19967;-58
2022/04/25 03:01:57;;;;;;;;;;;;;;;;;;5032531;28;19952;-58
2022/04/25 03:04:22;;;;;;;;;;;;;;;;;;5037775;28;19925;-58
2022/04/25 03:06:48;;;;;;;;;;;;;;;;;;5037746;28;20377;-58
2022/04/25 03:09:13;;;;;;;;;;;;;;;;;;5033567;28;19917;-58
2022/04/25 03:11:38;;;;;;;;;;;;;;;;;;5035336;28;20051;-58
2022/04/25 03:14:03;;;;;;;;;;;;;;;;;;5038452;28;20000;-58
2022/04/25 03:16:29;;;;;;;;;;;;;;;;;;5036456;28;19917;-58
2022/04/25 03:18:54;;;;;;;;;;;;;;;;;;5037821;28;19917;-59
2022/04/25 03:21:20;;;;;;;;;;;;;;;;;;5041498;28;19924;-58
2022/04/25 03:23:45;;;;;;;;;;;;;;;;;;5038636;28;20060;-59
2022/04/25 03:26:10;;;;;;;;;;;;;;;;;;5043292;28;19921;-59
2022/04/25 03:28:35;;;;;;;;;;;;;;;;;;5039253;28;19917;-59
2022/04/25 03:31:01;;;;;;;;;;;;;;;;;;5037884;28;20352;-59
2022/04/25 03:33:31;;;;;;;;;;;;;;;;;;5039649;28;19917;-59
2022/04/25 03:35:57;;;;;;;;;;;;;;;;;;5038285;28;19917;-59
2022/04/25 03:38:23;;;;;;;;;;;;;;;;;;5035558;28;19929;-59
2022/04/25 03:40:48;;;;;;;;;;;;;;;;;;5036990;28;19924;-59
2022/04/25 03:43:17;;;;;;;;;;;;;;;;;;5038799;28;19995;-59
2022/04/25 03:45:42;;;;;;;;;;;;;;;;;;5038709;28;20007;-59
2022/04/25 03:48:07;;;;;;;;;;;;;;;;;;5040365;28;19992;-59
2022/04/25 03:50:32;;;;;;;;;;;;;;;;;;5038653;28;19921;-58
2022/04/25 03:52:58;;;;;;;;;;;;;;;;;;5069815;28;19963;-58
2022/04/25 03:58:07;;;;;;;;;;;;;;;;;;5036371;28;19919;-58
2022/04/25 04:00:32;;;;;;;;;;;;;;;;;;5039091;28;19921;-59
2022/04/25 04:02:58;;;;;;;;;;;;;;;;;;5040596;28;19917;-59
2022/04/25 04:05:24;;;;;;;;;;;;;;;;;;5067791;28;20548;-59
2022/04/25 04:07:49;;;;;;;;;;;;;;;;;;5041472;28;19924;-59
2022/04/25 04:10:15;;;;;;;;;;;;;;;;;;5044270;28;20439;-59
2022/04/25 04:12:40;;;;;;;;;;;;;;;;;;5037074;28;20367;-59
2022/04/25 04:15:05;;;;;;;;;;;;;;;;;;5036876;28;19923;-59
2022/04/25 04:17:30;;;;;;;;;;;;;;;;;;5032274;28;19917;-60
2022/04/25 04:19:56;;;;;;;;;;;;;;;;;;5033193;28;19917;-59
2022/04/25 04:22:21;;;;;;;;;;;;;;;;;;5036806;28;20082;-59
2022/04/25 04:24:46;;;;;;;;;;;;;;;;;;5037105;28;19925;-59
2022/04/25 04:27:14;;;;;;;;;;;;;;;;;;5036557;28;19957;-59
2022/04/25 04:29:39;;;;;;;;;;;;;;;;;;5037098;28;19918;-60
2022/04/25 04:32:08;;;;;;;;;;;;;;;;;;5037877;28;19923;-57
2022/04/25 04:34:33;;;;;;;;;;;;;;;;;;5040013;28;20012;-57
2022/04/25 04:36:59;;;;;;;;;;;;;;;;;;5032436;28;20468;-57
2022/04/25 04:39:24;;;;;;;;;;;;;;;;;;5034303;28;19917;-57
2022/04/25 04:41:49;;;;;;;;;;;;;;;;;;5036916;28;19916;-57
2022/04/25 04:44:14;;;;;;;;;;;;;;;;;;5036435;28;19925;-57
2022/04/25 04:46:40;;;;;;;;;;;;;;;;;;5046134;28;19916;-57
2022/04/25 04:49:05;;;;;;;;;;;;;;;;;;5046343;28;20439;-57
2022/04/25 04:51:30;;;;;;;;;;;;;;;;;;5033399;28;20365;-59
2022/04/25 04:53:59;;;;;;;;;;;;;;;;;;5038542;28;19924;-59
2022/04/25 04:56:24;;;;;;;;;;;;;;;;;;5036688;28;20369;-59
2022/04/25 04:58:50;;;;;;;;;;;;;;;;;;5037347;28;19921;-59
2022/04/25 05:01:15;;;;;;;;;;;;;;;;;;5040119;28;20392;-60
2022/04/25 05:03:41;;;;;;;;;;;;;;;;;;5037367;28;19917;-59
2022/04/25 05:06:06;;;;;;;;;;;;;;;;;;5035902;28;20262;-59
2022/04/25 05:08:32;;;;;;;;;;;;;;;;;;5033919;28;20463;-59
2022/04/25 05:10:57;;;;;;;;;;;;;;;;;;5034466;28;19921;-59
2022/04/25 05:13:22;;;;;;;;;;;;;;;;;;5066630;28;19917;-59
2022/04/25 05:15:47;;;;;;;;;;;;;;;;;;5038252;28;20360;-58
2022/04/25 05:18:12;;;;;;;;;;;;;;;;;;5036191;28;20369;-59
2022/04/25 05:20:38;;;;;;;;;;;;;;;;;;5033407;28;19917;-59
2022/04/25 05:23:03;;;;;;;;;;;;;;;;;;5031208;28;19971;-59
2022/04/25 05:25:28;;;;;;;;;;;;;;;;;;5032036;28;19928;-59
2022/04/25 05:27:53;;;;;;;;;;;;;;;;;;5032894;28;19921;-59
2022/04/25 05:30:19;;;;;;;;;;;;;;;;;;5062400;28;20289;-59
2022/04/25 05:32:44;;;;;;;;;;;;;;;;;;5033441;28;19917;-59
2022/04/25 05:35:09;;;;;;;;;;;;;;;;;;5031034;28;20039;-59
2022/04/25 05:37:34;;;;;;;;;;;;;;;;;;5034277;28;20004;-59
2022/04/25 05:40:00;;;;;;;;;;;;;;;;;;5035051;28;19978;-59
2022/04/25 05:42:25;;;;;;;;;;;;;;;;;;5033844;28;19917;-59
2022/04/25 05:44:50;;;;;;;;;;;;;;;;;;5037124;28;19929;-59
2022/04/25 05:47:15;;;;;;;;;;;;;;;;;;5034797;28;19917;-59
2022/04/25 05:52:24;;;;;;;;;;;;;;;;;;5035911;28;19931;-59
2022/04/25 05:54:49;;;;;;;;;;;;;;;;;;5032553;28;19921;-59
2022/04/25 05:57:15;;;;;;;;;;;;;;;;;;5031879;28;19917;-59
2022/04/25 05:59:40;;;;;;;;;;;;;;;;;;5032882;28;20598;-59
2022/04/25 06:02:05;;;;;;;;;;;;;;;;;;5038194;28;19913;-59
2022/04/25 06:04:30;;;;;;;;;;;;;;;;;;5032265;28;20598;-59
2022/04/25 06:06:56;;;;;;;;;;;;;;;;;;5032791;28;19913;-59
2022/04/25 06:09:25;;;;;;;;;;;;;;;;;;5032404;28;20665;-59
2022/04/25 06:11:51;;;;;;;;;;;;;;;;;;5033733;28;19944;-59
2022/04/25 06:14:16;;;;;;;;;;;;;;;;;;5036191;28;20293;-59
2022/04/25 06:16:41;;;;;;;;;;;;;;;;;;5039116;28;20008;-59
2022/04/25 06:19:07;;;;;;;;;;;;;;;;;;5036368;28;19916;-59
2022/04/25 06:21:32;;;;;;;;;;;;;;;;;;5035762;28;20362;-59
2022/04/25 06:23:59;;;;;;;;;;;;;;;;;;5037063;28;20312;-59
2022/04/25 06:26:24;;;;;;;;;;;;;;;;;;5013696;28;19917;-60
2022/04/25 06:28:50;;;;;;;;;;;;;;;;;;5030354;28;19963;-60
2022/04/25 06:31:15;;;;;;;;;;;;;;;;;;5030750;28;19917;-60
2022/04/25 06:33:40;;;;;;;;;;;;;;;;;;5035904;28;19979;-60
2022/04/25 06:36:06;;;;;;;;;;;;;;;;;;5036750;28;20435;-60
2022/04/25 06:38:31;;;;;;;;;;;;;;;;;;5033712;28;20423;-60
2022/04/25 06:40:58;;;;;;;;;;;;;;;;;;5035630;28;19916;-59
2022/04/25 06:43:23;;;;;;;;;;;;;;;;;;5031156;28;20269;-60
2022/04/25 06:45:48;;;;;;;;;;;;;;;;;;5036104;28;20281;-59
2022/04/25 06:48:14;;;;;;;;;;;;;;;;;;5063597;28;20400;-60
2022/04/25 06:50:39;;;;;;;;;;;;;;;;;;5035872;28;20400;-60
2022/04/25 06:53:04;;;;;;;;;;;;;;;;;;5036148;28;19923;-60
2022/04/25 06:55:29;;;;;;;;;;;;;;;;;;5066747;28;20021;-59
2022/04/25 06:57:55;;;;;;;;;;;;;;;;;;5032734;28;19917;-60
2022/04/25 07:00:20;;;;;;;;;;;;;;;;;;5036158;28;20025;-60
2022/04/25 07:02:46;;;;;;;;;;;;;;;;;;5036346;28;20391;-60
2022/04/25 07:05:11;;;;;;;;;;;;;;;;;;5036732;28;19929;-60
2022/04/25 07:07:37;;;;;;;;;;;;;;;;;;5034104;28;19963;-59
2022/04/25 07:10:02;;;;;;;;;;;;;;;;;;5034539;28;19978;-59
2022/04/25 07:12:28;;;;;;;;;;;;;;;;;;5033404;28;19921;-59
2022/04/25 07:14:53;;;;;;;;;;;;;;;;;;5032416;28;20293;-59
2022/04/25 07:17:19;;;;;;;;;;;;;;;;;;5065702;28;20016;-59
2022/04/25 07:19:44;;;;;;;;;;;;;;;;;;5033565;28;20296;-59
2022/04/25 07:30:21;;;;;;;;;;;;;;;;;;5032033;28;20404;-60
2022/04/25 07:32:46;;;;;;;;;;;;;;;;;;5033754;28;19917;-59
2022/04/25 07:35:12;;;;;;;;;;;;;;;;;;5033047;28;20337;-59
2022/04/25 07:37:37;;;;;;;;;;;;;;;;;;5033615;28;20292;-59
2022/04/25 07:40:02;;;;;;;;;;;;;;;;;;5065165;28;19966;-59
2022/04/25 07:42:29;;;;;;;;;;;;;;;;;;5035401;28;19955;-59
2022/04/25 07:44:54;;;;;;;;;;;;;;;;;;5038376;28;19925;-59
2022/04/25 07:47:20;;;;;;;;;;;;;;;;;;5036033;28;20330;-60
2022/04/25 07:49:45;;;;;;;;;;;;;;;;;;5035681;28;19917;-59
2022/04/25 07:52:10;;;;;;;;;;;;;;;;;;5038007;28;20013;-59
2022/04/25 07:54:36;;;;;;;;;;;;;;;;;;5035450;28;19916;-59
2022/04/25 07:57:03;;;;;;;;;;;;;;;;;;5036215;28;19921;-60
2022/04/25 07:59:28;;;;;;;;;;;;;;;;;;5036423;28;20125;-60
2022/04/25 08:01:53;;;;;;;;;;;;;;;;;;5035173;28;19917;-60
2022/04/25 08:04:18;;;;;;;;;;;;;;;;;;5065791;28;19990;-60
2022/04/25 08:06:44;;;;;;;;;;;;;;;;;;5037838;28;19924;-60
2022/04/25 08:09:09;;;;;;;;;;;;;;;;;;5034945;28;19940;-59
2022/04/25 08:11:34;;;;;;;;;;;;;;;;;;5066199;28;19961;-59
2022/04/25 08:19:41;;;;;;;;;;;;;;;;;;5043710;28;20066;-58
2022/04/25 08:22:10;;;;;;;;;;;;;;;;;;5028446;28;20008;-59
2022/04/25 08:24:36;;;;;;;;;;;;;;;;;;5037329;28;19925;-59
2022/04/25 08:27:01;;;;;;;;;;;;;;;;;;5035640;28;19972;-59
2022/04/25 08:29:26;;;;;;;;;;;;;;;;;;5035853;28;20555;-59
2022/04/25 08:31:52;;;;;;;;;;;;;;;;;;5035757;28;19923;-59
2022/04/25 08:34:17;;;;;;;;;;;;;;;;;;5036660;28;19920;-58
2022/04/25 08:36:42;;;;;;;;;;;;;;;;;;5034587;28;19916;-58
2022/04/25 08:39:07;;;;;;;;;;;;;;;;;;5035027;28;19913;-59
2022/04/25 08:41:33;;;;;;;;;;;;;;;;;;5036580;28;20011;-59
2022/04/25 08:43:58;;;;;;;;;;;;;;;;;;5037323;28;20365;-59
2022/04/25 08:46:23;;;;;;;;;;;;;;;;;;5037117;28;20343;-59
2022/04/25 08:48:48;;;;;;;;;;;;;;;;;;5035381;28;20262;-59
2022/04/25 08:51:13;;;;;;;;;;;;;;;;;;5034244;28;20338;-59
2022/04/25 08:53:40;;;;;;;;;;;;;;;;;;5037198;28;20465;-58
2022/04/25 08:56:06;;;;;;;;;;;;;;;;;;5036266;28;19916;-59
2022/04/25 08:58:32;;;;;;;;;;;;;;;;;;5035353;28;19939;-59
2022/04/25 09:00:57;;;;;;;;;;;;;;;;;;5037617;28;20371;-59
2022/04/25 09:03:22;;;;;;;;;;;;;;;;;;5032859;28;20424;-59
2022/04/25 09:05:48;;;;;;;;;;;;;;;;;;5036423;28;20470;-59
2022/04/25 09:08:13;;;;;;;;;;;;;;;;;;5034319;28;20288;-59
2022/04/25 09:10:40;;;;;;;;;;;;;;;;;;5036012;28;19924;-59
2022/04/25 09:13:05;;;;;;;;;;;;;;;;;;5035599;28;20407;-59
2022/04/25 09:15:32;;;;;;;;;;;;;;;;;;5034445;28;19921;-59
2022/04/25 09:17:59;;;;;;;;;;;;;;;;;;5037491;28;19971;-59
2022/04/25 09:20:24;;;;;;;;;;;;;;;;;;5036466;28;20329;-60
2022/04/25 09:22:49;;;;;;;;;;;;;;;;;;5037900;28;19924;-60
2022/04/25 09:25:15;;;;;;;;;;;;;;;;;;5034830;28;20447;-60
2022/04/25 09:27:41;;;;;;;;;;;;;;;;;;5065849;28;20353;-59
2022/04/25 09:30:06;;;;;;;;;;;;;;;;;;5034507;28;20003;-59
2022/04/25 09:32:32;;;;;;;;;;;;;;;;;;5032965;28;20806;-59
2022/04/25 09:35:00;;;;;;;;;;;;;;;;;;5035246;28;19928;-60
2022/04/25 09:37:25;;;;;;;;;;;;;;;;;;5034659;28;20030;-59
2022/04/25 09:39:50;;;;;;;;;;;;;;;;;;5064634;28;19967;-59
2022/04/25 09:42:16;;;;;;;;;;;;;;;;;;5033937;28;19916;-59
2022/04/25 09:44:41;;;;;;;;;;;;;;;;;;5033230;28;19929;-59
2022/04/25 09:47:06;;;;;;;;;;;;;;;;;;5034098;28;19916;-60
2022/04/25 09:49:32;;;;;;;;;;;;;;;;;;5035216;28;19921;-60
2022/04/25 09:51:57;;;;;;;;;;;;;;;;;;5067437;28;20110;-60
2022/04/25 09:54:22;;;;;;;;;;;;;;;;;;5036969;28;19970;-60
2022/04/25 09:56:47;;;;;;;;;;;;;;;;;;5038092;28;19917;-60
2022/04/25 09:59:13;;;;;;;;;;;;;;;;;;5035487;28;19959;-59
2022/04/25 10:01:38;;;;;;;;;;;;;;;;;;5033094;28;19971;-61
2022/04/25 10:04:03;;;;;;;;;;;;;;;;;;5032048;28;20041;-60
2022/04/25 10:06:28;;;;;;;;;;;;;;;;;;5036190;28;19947;-59
2022/04/25 10:08:54;;;;;;;;;;;;;;;;;;5035348;28;20015;-59
2022/04/25 10:11:19;;;;;;;;;;;;;;;;;;5036054;28;20035;-59
2022/04/25 10:13:44;;;;;;;;;;;;;;;;;;5032899;28;20336;-59
2022/04/25 10:16:09;;;;;;;;;;;;;;;;;;5028868;28;20551;-60
2022/04/25 10:18:35;;;;;;;;;;;;;;;;;;5027439;28;20343;-60
2022/04/25 10:21:00;;;;;;;;;;;;;;;;;;5027903;28;19917;-60
2022/04/25 10:23:25;;;;;;;;;;;;;;;;;;5027948;28;20375;-60
2022/04/25 10:25:51;;;;;;;;;;;;;;;;;;5027842;28;19929;-60
2022/04/25 10:28:17;;;;;;;;;;;;;;;;;;5029460;28;19924;-60
2022/04/25 10:30:42;;;;;;;;;;;;;;;;;;5027240;28;19921;-60
2022/04/25 10:33:07;;;;;;;;;;;;;;;;;;5027562;28;20427;-60
2022/04/25 10:35:34;;;;;;;;;;;;;;;;;;5027785;28;19921;-60
2022/04/25 10:38:00;;;;;;;;;;;;;;;;;;5025618;28;20815;-60
2022/04/25 10:44:10;;;;;;;;;;;;;;;;;;5029218;28;20016;-60
2022/04/25 10:45:56;;;;;;;;;;;;;;;;;;5033110;28;19950;-60
2022/04/25 10:48:21;;;;;;;;;;;;;;;;;;5035029;28;19970;-59
2022/04/25 10:50:46;;;;;;;;;;;;;;;;;;5034999;28;19917;-61
2022/04/25 10:53:11;;;;;;;;;;;;;;;;;;5036068;28;20263;-60
2022/04/25 10:55:40;;;;;;;;;;;;;;;;;;5035113;28;20051;-61
2022/04/25 10:58:07;;;;;;;;;;;;;;;;;;5033948;28;19986;-61
2022/04/25 11:00:32;;;;;;;;;;;;;;;;;;5036871;28;20365;-60
2022/04/25 11:02:57;;;;;;;;;;;;;;;;;;5038127;28;19932;-60
2022/04/25 11:05:22;;;;;;;;;;;;;;;;;;5036480;28;19977;-60
2022/04/25 11:07:48;;;;;;;;;;;;;;;;;;5040668;28;19913;-60
2022/04/25 11:10:13;;;;;;;;;;;;;;;;;;5069159;28;19947;-60
2022/04/25 11:12:38;;;;;;;;;;;;;;;;;;5069103;28;20374;-59
2022/04/25 11:15:03;;;;;;;;;;;;;;;;;;5038342;28;19912;-62
2022/04/25 11:17:30;;;;;;;;;;;;;;;;;;5038571;28;19971;-60
2022/04/25 11:19:56;;;;;;;;;;;;;;;;;;5036819;28;19924;-60
2022/04/25 11:22:21;;;;;;;;;;;;;;;;;;5066940;28;19990;-60
2022/04/25 11:24:47;;;;;;;;;;;;;;;;;;5037841;28;19925;-60
2022/04/25 11:27:14;;;;;;;;;;;;;;;;;;5036428;28;19921;-61
2022/04/25 11:29:40;;;;;;;;;;;;;;;;;;5040005;28;19942;-61
2022/04/25 11:32:05;;;;;;;;;;;;;;;;;;5037501;28;20352;-60
2022/04/25 11:34:32;;;;;;;;;;;;;;;;;;5036837;28;19913;-61
2022/04/25 11:36:58;;;;;;;;;;;;;;;;;;5038089;28;19916;-61
2022/04/25 11:42:07;;;;;;;;;;;;;;;;;;5038741;28;19917;-60
2022/04/25 11:44:32;;;;;;;;;;;;;;;;;;5038205;28;19931;-61
2022/04/25 11:46:57;;;;;;;;;;;;;;;;;;5037192;28;20011;-60
2022/04/25 11:49:22;;;;;;;;;;;;;;;;;;5034077;28;19941;-60
2022/04/25 11:51:47;;;;;;;;;;;;;;;;;;5035826;28;19995;-61
2022/04/25 11:54:13;;;;;;;;;;;;;;;;;;5035875;28;19913;-60
2022/04/25 11:56:39;;;;;;;;;;;;;;;;;;5039590;28;19917;-60
2022/04/25 11:59:04;;;;;;;;;;;;;;;;;;5035953;28;20415;-60
2022/04/25 12:01:29;;;;;;;;;;;;;;;;;;5035838;28;20562;-60
2022/04/25 12:03:54;;;;;;;;;;;;;;;;;;5035253;28;20700;-60
2022/04/25 12:06:20;;;;;;;;;;;;;;;;;;5044697;28;20398;-60
2022/04/25 12:16:56;;;;;;;;;;;;;;;;;;5069205;28;20040;-61
2022/04/25 12:19:21;;;;;;;;;;;;;;;;;;5037804;28;19917;-60
2022/04/25 12:21:48;;;;;;;;;;;;;;;;;;5034907;28;19920;-61
2022/04/25 12:24:13;;;;;;;;;;;;;;;;;;5037878;28;20010;-62
2022/04/25 12:26:39;;;;;;;;;;;;;;;;;;5036795;28;19952;-61
2022/04/25 12:29:04;;;;;;;;;;;;;;;;;;5037626;28;19923;-61
2022/04/25 12:31:29;;;;;;;;;;;;;;;;;;5036188;28;20040;-61
2022/04/25 12:33:54;;;;;;;;;;;;;;;;;;5037693;28;20373;-61
2022/04/25 12:36:20;;;;;;;;;;;;;;;;;;5038378;28;20007;-61
2022/04/25 12:38:45;;;;;;;;;;;;;;;;;;5036206;28;20265;-61
2022/04/25 12:41:10;;;;;;;;;;;;;;;;;;5038914;28;20030;-62
2022/04/25 12:43:35;;;;;;;;;;;;;;;;;;5037404;28;20370;-61
2022/04/25 12:46:01;;;;;;;;;;;;;;;;;;5036417;28;19925;-61
2022/04/25 12:48:26;;;;;;;;;;;;;;;;;;5036309;28;19913;-61
2022/04/25 12:50:52;;;;;;;;;;;;;;;;;;5035970;28;20412;-61
2022/04/25 12:53:17;;;;;;;;;;;;;;;;;;5034664;28;19972;-60
2022/04/25 12:55:43;;;;;;;;;;;;;;;;;;5035822;28;20016;-60
2022/04/25 12:58:08;;;;;;;;;;;;;;;;;;5036686;28;19940;-60
2022/04/25 13:00:33;;;;;;;;;;;;;;;;;;5035449;28;19928;-61
2022/04/25 13:02:58;;;;;;;;;;;;;;;;;;5067730;28;20377;-61
2022/04/25 13:05:24;;;;;;;;;;;;;;;;;;5036031;28;19921;-61
2022/04/25 13:07:49;;;;;;;;;;;;;;;;;;5036492;28;20177;-60
2022/04/25 13:10:14;;;;;;;;;;;;;;;;;;5032244;28;19960;-61
2022/04/25 13:12:40;;;;;;;;;;;;;;;;;;5029443;28;19916;-61
2022/04/25 13:15:05;;;;;;;;;;;;;;;;;;5033551;28;20382;-61
2022/04/25 13:17:30;;;;;;;;;;;;;;;;;;5032526;28;19925;-61
2022/04/25 13:19:56;;;;;;;;;;;;;;;;;;5033325;28;19917;-61
2022/04/25 13:22:21;;;;;;;;;;;;;;;;;;5032191;28;19963;-61
2022/04/25 13:24:48;;;;;;;;;;;;;;;;;;5033658;28;19932;-61
2022/04/25 13:27:14;;;;;;;;;;;;;;;;;;5029594;28;19994;-61
2022/04/25 13:29:39;;;;;;;;;;;;;;;;;;5030777;28;21076;-61
2022/04/25 13:32:04;;;;;;;;;;;;;;;;;;5015227;28;20404;-61
2022/04/25 13:34:29;;;;;;;;;;;;;;;;;;5028923;28;20301;-61
2022/04/25 13:36:54;;;;;;;;;;;;;;;;;;5035826;28;19917;-61
2022/04/25 13:39:20;;;;;;;;;;;;;;;;;;5033832;28;20016;-61
2022/04/25 13:41:45;;;;;;;;;;;;;;;;;;5033366;28;20372;-61
2022/04/25 13:44:10;;;;;;;;;;;;;;;;;;5064724;28;19925;-62
2022/04/25 13:46:36;;;;;;;;;;;;;;;;;;5033740;28;20378;-61
2022/04/25 13:49:01;;;;;;;;;;;;;;;;;;5034668;28;19925;-61
2022/04/25 13:51:26;;;;;;;;;;;;;;;;;;5065685;28;19967;-61
2022/04/25 13:53:51;;;;;;;;;;;;;;;;;;5033388;28;20087;-60
2022/04/25 13:56:19;;;;;;;;;;;;;;;;;;5032093;28;19917;-60
2022/04/25 13:58:44;;;;;;;;;;;;;;;;;;5032914;28;19920;-61
2022/04/25 14:01:09;;;;;;;;;;;;;;;;;;5033869;28;20352;-61
2022/04/25 14:03:35;;;;;;;;;;;;;;;;;;5034462;28;20401;-60
2022/04/25 14:06:00;;;;;;;;;;;;;;;;;;5036056;28;20266;-60
2022/04/25 14:08:26;;;;;;;;;;;;;;;;;;5034171;28;19913;-61
2022/04/25 14:10:52;;;;;;;;;;;;;;;;;;5034087;28;19917;-59
2022/04/25 14:13:18;;;;;;;;;;;;;;;;;;5034201;28;19932;-60
2022/04/25 14:15:43;;;;;;;;;;;;;;;;;;5034650;28;19971;-61
2022/04/25 14:18:09;;;;;;;;;;;;;;;;;;5032360;28;20043;-61
2022/04/25 14:20:34;;;;;;;;;;;;;;;;;;5037182;28;19923;-60
2022/04/25 14:22:59;;;;;;;;;;;;;;;;;;5034888;28;20104;-61
2022/04/25 14:25:24;;;;;;;;;;;;;;;;;;5035822;28;19986;-61
2022/04/25 14:27:50;;;;;;;;;;;;;;;;;;5038282;28;20031;-62
2022/04/25 14:30:15;;;;;;;;;;;;;;;;;;5036143;28;19921;-61
2022/04/25 14:32:40;;;;;;;;;;;;;;;;;;5035441;28;19967;-62
2022/04/25 14:35:06;;;;;;;;;;;;;;;;;;5036593;28;19963;-61
2022/04/25 14:37:31;;;;;;;;;;;;;;;;;;5041302;28;19978;-60
2022/04/25 14:39:56;;;;;;;;;;;;;;;;;;5039291;28;20890;-61
2022/04/25 14:42:21;;;;;;;;;;;;;;;;;;5040343;28;19921;-61
2022/04/25 14:44:46;;;;;;;;;;;;;;;;;;5040934;28;20179;-61
2022/04/25 14:47:12;;;;;;;;;;;;;;;;;;5038527;28;19917;-60
2022/04/25 14:55:05;;;;;;;;;;;;;;;;;;5038755;28;19994;-61
2022/04/25 14:57:30;;;;;;;;;;;;;;;;;;5037410;28;20399;-61
2022/04/25 14:59:55;;;;;;;;;;;;;;;;;;5039914;28;20298;-61
2022/04/25 15:02:20;;;;;;;;;;;;;;;;;;5035625;28;20445;-60
2022/04/25 15:04:45;;;;;;;;;;;;;;;;;;5037919;28;19925;-61
2022/04/25 15:07:11;;;;;;;;;;;;;;;;;;5036495;28;19953;-60
2022/04/25 15:09:36;;;;;;;;;;;;;;;;;;5038096;28;19912;-62
2022/04/25 15:12:01;;;;;;;;;;;;;;;;;;5037564;28;19924;-60
2022/04/25 15:14:26;;;;;;;;;;;;;;;;;;5038166;28;19913;-60
2022/04/25 15:16:51;;;;;;;;;;;;;;;;;;5038449;28;19917;-61
2022/04/25 15:19:17;;;;;;;;;;;;;;;;;;5039473;28;19920;-60
2022/04/25 15:21:42;;;;;;;;;;;;;;;;;;5037097;28;19921;-61
2022/04/25 15:24:07;;;;;;;;;;;;;;;;;;5037471;28;19959;-60
2022/04/25 15:26:32;;;;;;;;;;;;;;;;;;5069862;28;19920;-60
2022/04/25 15:28:57;;;;;;;;;;;;;;;;;;5034578;28;19970;-60
2022/04/25 15:31:23;;;;;;;;;;;;;;;;;;5056238;28;19913;-61
2022/04/25 15:33:49;;;;;;;;;;;;;;;;;;5038683;28;19917;-60
2022/04/25 15:36:15;;;;;;;;;;;;;;;;;;5029965;28;19986;-62
2022/04/25 15:38:41;;;;;;;;;;;;;;;;;;5033337;28;20368;-61
2022/04/25 15:41:06;;;;;;;;;;;;;;;;;;5037294;28;19917;-61
2022/04/25 15:43:31;;;;;;;;;;;;;;;;;;5028786;28;19921;-61
2022/04/25 15:45:56;;;;;;;;;;;;;;;;;;5040295;28;19928;-61
2022/04/25 15:48:21;;;;;;;;;;;;;;;;;;5031120;28;19916;-62
2022/04/25 15:50:47;;;;;;;;;;;;;;;;;;5030410;28;20620;-62
2022/04/25 15:53:13;;;;;;;;;;;;;;;;;;5037740;28;20003;-61
2022/04/25 15:58:22;;;;;;;;;;;;;;;;;;5043834;28;19917;-61
2022/04/25 16:00:48;;;;;;;;;;;;;;;;;;5033072;28;19917;-62
2022/04/25 16:03:13;;;;;;;;;;;;;;;;;;5031835;28;19921;-62
2022/04/25 16:05:39;;;;;;;;;;;;;;;;;;5072736;28;20301;-59
2022/04/25 16:08:09;;;;;;;;;;;;;;;;;;5033596;28;19917;-61
2022/04/25 16:10:35;;;;;;;;;;;;;;;;;;5038287;28;20011;-61
2022/04/25 16:13:03;;;;;;;;;;;;;;;;;;5031657;28;19917;-60
2022/04/25 16:15:28;;;;;;;;;;;;;;;;;;5033868;28;20015;-60
2022/04/25 16:17:54;;;;;;;;;;;;;;;;;;5034822;28;20012;-60
2022/04/25 16:20:19;;;;;;;;;;;;;;;;;;5030635;28;19970;-61
2022/04/25 16:22:45;;;;;;;;;;;;;;;;;;5030284;28;19917;-60
2022/04/25 16:25:10;;;;;;;;;;;;;;;;;;5038423;28;20048;-61
2022/04/25 16:27:36;;;;;;;;;;;;;;;;;;5031023;28;19924;-62
2022/04/25 16:30:03;;;;;;;;;;;;;;;;;;5037231;28;19956;-62
2022/04/25 16:32:29;;;;;;;;;;;;;;;;;;5028505;28;19913;-61
2022/04/25 16:34:54;;;;;;;;;;;;;;;;;;5028991;28;19917;-60
2022/04/25 16:37:19;;;;;;;;;;;;;;;;;;5035883;28;19956;-61
2022/04/25 16:39:45;;;;;;;;;;;;;;;;;;5026451;28;20377;-61
2022/04/25 16:42:11;;;;;;;;;;;;;;;;;;5036391;28;20015;-61
2022/04/25 16:44:36;;;;;;;;;;;;;;;;;;5030906;28;19921;-61
2022/04/25 16:47:01;;;;;;;;;;;;;;;;;;5032206;28;20035;-61
2022/04/25 16:49:26;;;;;;;;;;;;;;;;;;5038363;28;19963;-61
2022/04/25 16:51:53;;;;;;;;;;;;;;;;;;5025986;28;19917;-61
2022/04/25 16:54:18;;;;;;;;;;;;;;;;;;5034210;28;19939;-61
2022/04/25 16:56:44;;;;;;;;;;;;;;;;;;5054313;28;20389;-61
2022/04/25 16:59:09;;;;;;;;;;;;;;;;;;5026116;28;19916;-62
2022/04/25 17:01:34;;;;;;;;;;;;;;;;;;5064870;28;19927;-62
2022/04/25 17:03:59;;;;;;;;;;;;;;;;;;5027071;28;19925;-62
2022/04/25 17:06:25;;;;;;;;;;;;;;;;;;5031591;28;19927;-62
2022/04/25 17:08:51;;;;;;;;;;;;;;;;;;5027818;28;20255;-61
2022/04/25 17:11:16;;;;;;;;;;;;;;;;;;5031982;28;19923;-62
2022/04/25 17:13:41;;;;;;;;;;;;;;;;;;5031643;28;19921;-62
2022/04/25 17:16:06;;;;;;;;;;;;;;;;;;5026022;28;19924;-62
2022/04/25 17:18:32;;;;;;;;;;;;;;;;;;5032626;28;20358;-63
2022/04/25 17:20:57;;;;;;;;;;;;;;;;;;5025600;28;19920;-61